Hovedside
METAR-TAF:

METAR-TAF

Lufthavner :

Harare internasjonale lufthavn

Harare, Zimbabwe

breddegrad: 17-55S, lengdegrad: 031-08E, høyde over havet: 1479 m

METAR: fraværende

Tid: 06:00 (04:00 UTC)

Varsel

Denne rapporten ble laget for 12 timer og 0 minutter siden, klokken 16:00 UTC
Varsel gyldig fra 18. klokken 18 UTC til 19. klokken 24 UTC
Vind 8 kt fra Øst-nordøst
Sikt 10 km eller mer
ingen skyer under 1500 m og ingen bygeskyer

TAF: FVHA 181600Z 1818/1924 06008KT CAVOK

Værobservasjoner og værvarsel for over 4000 flyplasser (METAR- og TAF-rapporter).

Tilgjengelige stasjoner er representert av de røde og gule prikkene på kartet.

Hold musepekeren over prikken for å se navnet på stasjonen.

Klikk så for å se værobservasjoner og -varsler.

For å forandre kartet kan du klikke på den grønne knappen med svart kryss for å zoome inn, på den grønne knappen med strek for å zoome ut, eller på de grønne pilene for å se tilstøtende kart.


METAR-TAF: